Time;durP1;ratioP1;P1;durP2;ratioP2;P2;SDS_P1;SDS_P2;PMS_P1;PMS_P2;Temp;Humidity;BMP_temperature;BMP_pressure;BME280_temperature;BME280_humidity;BME280_pressure;Samples;Min_cycle;Max_cycle;Signal;HPM_P1;HPM_P2
2021/06/10 00:00:06;;;;;;;26.30;12.85;;;;;;;15.10;100.00;96722.06;5037609;28;20423;-72
2021/06/10 00:02:32;;;;;;;18.92;9.45;;;;;;;14.95;100.00;96718.66;5037066;28;20209;-72
2021/06/10 00:04:59;;;;;;;20.98;12.43;;;;;;;14.97;100.00;96716.66;5037478;28;20231;-72
2021/06/10 00:07:25;;;;;;;108.10;16.15;;;;;;;14.85;100.00;96715.50;5038265;28;20266;-72
2021/06/10 00:09:51;;;;;;;19.40;13.27;;;;;;;14.86;100.00;96719.00;5037380;28;20201;-72
2021/06/10 00:12:19;;;;;;;21.00;12.90;;;;;;;14.83;100.00;96720.19;5037598;28;20198;-72
2021/06/10 00:14:46;;;;;;;19.40;11.63;;;;;;;14.79;100.00;96718.94;5037018;28;20232;-72
2021/06/10 00:17:12;;;;;;;16.92;10.88;;;;;;;14.68;100.00;96721.28;5036903;28;20239;-72
2021/06/10 00:19:39;;;;;;;17.85;11.60;;;;;;;14.70;100.00;96720.09;5037505;28;20761;-72
2021/06/10 00:22:06;;;;;;;17.42;11.70;;;;;;;14.71;100.00;96721.75;5037984;28;20204;-72
2021/06/10 00:24:32;;;;;;;18.58;11.25;;;;;;;14.69;100.00;96734.34;5038168;28;20225;-72
2021/06/10 00:26:58;;;;;;;18.55;12.02;;;;;;;14.67;100.00;96732.91;5037029;28;20205;-72
2021/06/10 00:29:24;;;;;;;23.52;13.70;;;;;;;14.66;100.00;96718.84;5037535;28;20694;-72
2021/06/10 00:31:50;;;;;;;21.98;14.32;;;;;;;14.73;100.00;96724.19;5037294;28;20647;-72
2021/06/10 00:34:16;;;;;;;21.35;13.98;;;;;;;14.81;100.00;96729.38;5037379;28;20312;-72
2021/06/10 00:36:43;;;;;;;21.60;13.57;;;;;;;14.78;100.00;96727.09;5036531;28;20225;-72
2021/06/10 00:39:10;;;;;;;23.23;14.70;;;;;;;14.72;100.00;96731.31;5036995;28;20209;-72
2021/06/10 00:41:38;;;;;;;23.08;14.40;;;;;;;14.57;100.00;96736.88;5035864;28;20217;-72
2021/06/10 00:44:06;;;;;;;26.98;16.48;;;;;;;14.41;100.00;96729.16;5038447;28;20219;-72
2021/06/10 00:46:33;;;;;;;25.33;15.90;;;;;;;14.43;100.00;96727.97;5039587;28;20205;-72
2021/06/10 00:48:59;;;;;;;22.30;14.32;;;;;;;14.56;100.00;96720.16;5040985;28;20204;-72
2021/06/10 00:51:25;;;;;;;19.08;12.18;;;;;;;14.51;100.00;96719.06;5040284;28;20205;-72
2021/06/10 00:53:51;;;;;;;18.33;12.65;;;;;;;14.60;100.00;96723.25;5040721;28;20217;-72
2021/06/10 00:56:18;;;;;;;17.23;11.88;;;;;;;14.46;100.00;96717.00;5039196;28;20218;-72
2021/06/10 00:58:44;;;;;;;16.60;10.95;;;;;;;14.44;100.00;96720.84;5039880;28;20201;-72
2021/06/10 01:01:10;;;;;;;15.43;11.15;;;;;;;14.47;100.00;96712.50;5040041;28;20212;-72
2021/06/10 01:03:36;;;;;;;13.52;9.52;;;;;;;14.49;100.00;96716.63;5039826;28;20573;-72
2021/06/10 01:06:12;;;;;;;14.20;8.95;;;;;;;14.48;100.00;96724.75;5039660;28;20723;-72
2021/06/10 01:08:43;;;;;;;11.98;8.85;;;;;;;14.53;100.00;96727.69;5039609;28;20212;-72
2021/06/10 01:11:26;;;;;;;10.65;7.55;;;;;;;14.56;100.00;96727.28;5039639;28;20209;-72
2021/06/10 01:14:03;;;;;;;9.88;7.22;;;;;;;14.57;100.00;96724.44;5039317;28;20220;-72
2021/06/10 01:16:33;;;;;;;14.18;7.60;;;;;;;14.55;100.00;96726.47;5038801;28;20583;-72
2021/06/10 01:19:02;;;;;;;12.65;8.63;;;;;;;14.63;100.00;96713.09;5040533;28;20206;-72
2021/06/10 01:21:29;;;;;;;11.25;7.43;;;;;;;14.29;100.00;96714.78;5039525;28;20201;-72
2021/06/10 01:24:08;;;;;;;11.10;6.43;;;;;;;14.17;100.00;96717.09;5038619;28;20275;-72
2021/06/10 01:26:39;;;;;;;12.40;7.43;;;;;;;14.23;100.00;96715.50;5038772;28;20287;-72
2021/06/10 01:29:11;;;;;;;11.48;8.38;;;;;;;14.25;100.00;96714.31;5039283;28;20205;-72
2021/06/10 01:31:37;;;;;;;13.82;9.73;;;;;;;14.24;100.00;96722.47;5039142;28;20367;-72
2021/06/10 01:34:07;;;;;;;13.52;9.93;;;;;;;14.33;100.00;96718.69;5038914;28;20565;-72
2021/06/10 01:36:35;;;;;;;11.63;8.18;;;;;;;14.21;100.00;96718.34;5038060;28;20244;-72
2021/06/10 01:39:05;;;;;;;12.45;8.88;;;;;;;14.23;100.00;96715.50;5038804;28;20224;-72
2021/06/10 01:41:33;;;;;;;14.52;10.23;;;;;;;14.21;100.00;96712.25;5039064;28;20209;-72
2021/06/10 01:44:01;;;;;;;14.90;11.00;;;;;;;14.28;100.00;96707.81;5039223;28;20252;-72
2021/06/10 01:46:31;;;;;;;15.93;11.10;;;;;;;14.31;100.00;96718.06;5038085;28;20240;-72
2021/06/10 01:48:59;;;;;;;14.65;10.23;;;;;;;14.24;100.00;96715.34;5039285;28;20217;-72
2021/06/10 01:51:28;;;;;;;20.38;11.68;;;;;;;14.23;100.00;96716.34;5039087;28;20216;-72
2021/06/10 01:53:57;;;;;;;18.58;12.25;;;;;;;14.28;100.00;96710.47;5037479;28;20236;-72
2021/06/10 01:56:24;;;;;;;19.67;11.75;;;;;;;14.16;100.00;96711.97;5038245;28;20223;-72
2021/06/10 01:58:51;;;;;;;15.05;9.60;;;;;;;14.17;100.00;96705.69;5038894;28;20216;-72
2021/06/10 02:01:18;;;;;;;16.45;11.20;;;;;;;14.27;100.00;96706.19;5038452;28;20213;-72
2021/06/10 02:03:47;;;;;;;23.55;13.90;;;;;;;14.30;100.00;96705.81;5038822;28;20640;-72
2021/06/10 02:06:14;;;;;;;22.30;14.90;;;;;;;14.39;100.00;96704.69;5038169;28;20209;-72
2021/06/10 02:08:41;;;;;;;23.73;14.93;;;;;;;14.47;100.00;96707.22;5034630;28;20231;-72
2021/06/10 02:11:07;;;;;;;15.25;10.32;;;;;;;14.32;100.00;96704.63;5038317;28;20209;-72
2021/06/10 02:13:34;;;;;;;11.80;8.63;;;;;;;14.30;100.00;96701.31;5038501;28;20228;-72
2021/06/10 02:16:04;;;;;;;15.57;11.55;;;;;;;14.25;100.00;96713.50;5037937;28;20205;-72
2021/06/10 02:18:30;;;;;;;19.92;13.85;;;;;;;14.25;100.00;96708.22;5038828;28;20256;-72
2021/06/10 02:21:00;;;;;;;22.15;15.18;;;;;;;14.29;100.00;96704.16;5039358;28;20945;-72
2021/06/10 02:23:26;;;;;;;15.45;9.82;;;;;;;14.27;100.00;96709.66;5038048;28;20236;-72
2021/06/10 02:25:52;;;;;;;13.50;8.60;;;;;;;14.15;100.00;96707.69;5037800;28;21258;-72
2021/06/10 02:28:18;;;;;;;18.38;11.77;;;;;;;14.25;100.00;96702.91;5038179;28;20197;-72
2021/06/10 02:30:44;;;;;;;17.45;12.63;;;;;;;14.21;100.00;96701.66;5039227;28;20296;-71
2021/06/10 02:33:10;;;;;;;20.52;13.55;;;;;;;14.23;100.00;96699.59;5038301;28;20229;-72
2021/06/10 02:35:36;;;;;;;17.77;12.07;;;;;;;14.13;100.00;96699.13;5036837;28;20258;-72
2021/06/10 02:38:05;;;;;;;23.17;12.38;;;;;;;14.17;100.00;96700.38;5037426;28;20229;-72
2021/06/10 02:40:34;;;;;;;14.00;10.23;;;;;;;14.12;100.00;96702.78;5038550;28;20220;-72
2021/06/10 02:43:03;;;;;;;17.08;11.30;;;;;;;14.03;100.00;96695.91;5037313;28;20209;-72
2021/06/10 02:45:29;;;;;;;14.25;10.27;;;;;;;14.01;100.00;96693.44;5036681;28;20212;-72
2021/06/10 02:47:57;;;;;;;17.13;11.63;;;;;;;13.97;100.00;96694.00;5037133;28;20386;-71
2021/06/10 02:50:27;;;;;;;14.38;10.80;;;;;;;13.90;100.00;96692.28;5036459;28;20522;-72
2021/06/10 02:52:55;;;;;;;15.48;11.23;;;;;;;13.93;100.00;96697.22;5036609;28;20728;-72
2021/06/10 02:55:22;;;;;;;14.90;11.52;;;;;;;13.96;100.00;96700.28;5036543;28;20365;-72
2021/06/10 02:57:53;;;;;;;15.38;11.18;;;;;;;13.97;100.00;96703.78;5036394;28;20225;-71
2021/06/10 03:00:21;;;;;;;13.00;10.15;;;;;;;13.93;100.00;96711.28;5036540;28;20205;-72
2021/06/10 03:02:48;;;;;;;13.98;9.88;;;;;;;13.91;100.00;96700.03;5037002;28;20616;-72
2021/06/10 03:05:15;;;;;;;12.77;9.63;;;;;;;13.86;100.00;96697.16;5035980;28;20508;-72
2021/06/10 03:07:42;;;;;;;16.50;10.20;;;;;;;13.82;100.00;96695.84;5035891;28;20472;-72
2021/06/10 03:10:10;;;;;;;13.82;10.40;;;;;;;13.78;100.00;96697.22;5036951;28;20208;-73
2021/06/10 03:12:39;;;;;;;12.75;9.43;;;;;;;13.80;100.00;96697.88;5036662;28;21012;-72
2021/06/10 03:15:07;;;;;;;15.98;11.40;;;;;;;13.77;100.00;96698.25;5035343;28;20229;-72
2021/06/10 03:17:33;;;;;;;17.55;12.13;;;;;;;13.83;100.00;96691.38;5034471;28;20229;-73
2021/06/10 03:19:59;;;;;;;19.95;13.63;;;;;;;13.86;100.00;96683.06;5037048;28;20572;-73
2021/06/10 03:22:26;;;;;;;16.58;12.93;;;;;;;13.83;100.00;96692.19;5037125;28;20984;-72
2021/06/10 03:24:52;;;;;;;23.40;14.13;;;;;;;13.88;100.00;96687.16;5036840;28;20217;-72
2021/06/10 03:27:19;;;;;;;20.00;14.00;;;;;;;13.93;100.00;96691.91;5036025;28;20213;-72
2021/06/10 03:29:47;;;;;;;16.48;10.98;;;;;;;13.88;100.00;96695.13;5036461;28;20209;-73
2021/06/10 03:32:14;;;;;;;18.92;13.00;;;;;;;13.87;100.00;96698.75;5036815;28;20212;-72
2021/06/10 03:34:41;;;;;;;26.75;17.98;;;;;;;13.98;100.00;96696.44;5036586;28;20244;-72
2021/06/10 03:37:07;;;;;;;25.55;16.52;;;;;;;13.98;100.00;96695.66;5035602;28;20240;-72
2021/06/10 03:39:35;;;;;;;19.15;11.82;;;;;;;13.84;100.00;96699.16;5036248;28;20631;-72
2021/06/10 03:42:01;;;;;;;19.17;13.27;;;;;;;13.83;100.00;96694.84;5036959;28;20208;-72
2021/06/10 03:44:31;;;;;;;23.67;14.98;;;;;;;13.95;100.00;96701.31;5036554;28;20232;-73
2021/06/10 03:46:58;;;;;;;23.88;16.88;;;;;;;14.02;100.00;96696.91;5035307;28;20212;-72
2021/06/10 03:49:24;;;;;;;17.58;12.68;;;;;;;14.04;100.00;96701.03;5036433;28;20212;-72
2021/06/10 03:51:51;;;;;;;16.73;8.75;;;;;;;13.96;100.00;96707.44;5036148;28;20205;-72
2021/06/10 03:54:19;;;;;;;25.95;14.75;;;;;;;14.02;100.00;96703.03;5036076;28;20253;-73
2021/06/10 03:56:45;;;;;;;25.67;14.48;;;;;;;14.06;100.00;96706.13;5035419;28;20618;-72
2021/06/10 03:59:11;;;;;;;15.50;11.02;;;;;;;14.01;100.00;96709.34;5036076;28;20216;-72
2021/06/10 04:01:37;;;;;;;26.17;14.05;;;;;;;14.02;100.00;96710.16;5036524;28;21139;-72
2021/06/10 04:04:05;;;;;;;23.13;15.45;;;;;;;14.05;100.00;96707.13;5036506;28;20320;-72
2021/06/10 04:06:34;;;;;;;21.63;14.32;;;;;;;14.04;100.00;96705.50;5035497;28;20675;-72
2021/06/10 04:09:00;;;;;;;27.33;16.25;;;;;;;14.10;100.00;96710.06;5036302;28;20197;-72
2021/06/10 04:11:26;;;;;;;22.33;15.80;;;;;;;14.16;100.00;96710.13;5035818;28;20667;-72
2021/06/10 04:13:52;;;;;;;16.65;11.88;;;;;;;14.08;100.00;96712.09;5035826;28;20224;-72
2021/06/10 04:16:18;;;;;;;19.90;13.32;;;;;;;14.11;100.00;96709.88;5035779;28;20420;-72
2021/06/10 04:18:45;;;;;;;24.23;15.18;;;;;;;14.24;100.00;96707.41;5039368;28;20644;-72
2021/06/10 04:21:12;;;;;;;22.60;14.02;;;;;;;14.25;100.00;96711.66;5039778;28;20227;-72
2021/06/10 04:23:38;;;;;;;26.65;17.38;;;;;;;14.36;100.00;96710.38;5040197;28;20229;-72
2021/06/10 04:26:05;;;;;;;19.95;13.55;;;;;;;14.33;100.00;96710.72;5036717;28;20212;-72
2021/06/10 04:28:31;;;;;;;21.25;14.88;;;;;;;14.42;100.00;96709.59;5039651;28;20208;-72
2021/06/10 04:30:57;;;;;;;29.20;18.73;;;;;;;14.48;100.00;96706.19;5039950;28;20282;-72
2021/06/10 04:33:23;;;;;;;30.30;20.35;;;;;;;14.57;100.00;96705.06;5039683;28;20252;-72
2021/06/10 04:35:49;;;;;;;40.63;25.00;;;;;;;14.66;100.00;96707.38;5038840;28;20682;-72
2021/06/10 04:38:17;;;;;;;47.47;26.40;;;;;;;14.79;100.00;96710.16;5039849;28;20225;-72
2021/06/10 04:40:43;;;;;;;45.33;24.60;;;;;;;14.84;100.00;96710.41;5039496;28;20259;-72
2021/06/10 04:43:09;;;;;;;40.40;24.33;;;;;;;14.90;100.00;96718.41;5039331;28;20232;-72
2021/06/10 04:45:35;;;;;;;38.65;24.67;;;;;;;14.95;100.00;96708.03;5038833;28;20205;-72
2021/06/10 04:48:01;;;;;;;42.20;24.55;;;;;;;15.08;100.00;96713.44;5040030;28;20227;-72
2021/06/10 04:50:28;;;;;;;37.35;24.02;;;;;;;15.09;100.00;96714.28;5039488;28;20717;-72
2021/06/10 04:52:55;;;;;;;39.10;23.35;;;;;;;15.17;100.00;96714.94;5038821;28;20205;-72
2021/06/10 04:55:23;;;;;;;41.45;24.55;;;;;;;15.17;100.00;96717.59;5039246;28;20268;-72
2021/06/10 04:57:50;;;;;;;34.92;23.25;;;;;;;15.22;100.00;96714.41;5039102;28;20717;-72
2021/06/10 05:00:16;;;;;;;35.65;24.30;;;;;;;15.22;100.00;96715.22;5039164;28;20270;-72
2021/06/10 05:02:42;;;;;;;34.45;23.45;;;;;;;15.24;100.00;96707.91;5038878;28;20212;-72
2021/06/10 05:05:10;;;;;;;37.38;24.83;;;;;;;15.30;100.00;96717.75;5039505;28;20241;-72
2021/06/10 05:07:36;;;;;;;36.33;23.58;;;;;;;15.39;100.00;96716.59;5039081;28;20701;-71
2021/06/10 05:10:03;;;;;;;34.05;23.52;;;;;;;15.40;100.00;96713.72;5038817;28;20213;-72
2021/06/10 05:12:31;;;;;;;34.92;23.98;;;;;;;15.48;100.00;96715.41;5038951;28;20582;-72
2021/06/10 05:14:57;;;;;;;39.42;24.42;;;;;;;15.56;100.00;96717.91;5038782;28;20233;-72
2021/06/10 05:17:23;;;;;;;36.40;23.52;;;;;;;15.63;100.00;96716.09;5037953;28;20232;-73
2021/06/10 05:19:49;;;;;;;36.90;22.63;;;;;;;15.71;100.00;96715.94;5039274;28;20208;-72
2021/06/10 05:22:15;;;;;;;33.03;23.92;;;;;;;15.72;100.00;96709.59;5039037;28;20639;-72
2021/06/10 05:24:40;;;;;;;36.55;23.52;;;;;;;15.74;100.00;96712.88;5038577;28;20318;-72
2021/06/10 05:27:09;;;;;;;32.38;21.42;;;;;;;15.85;100.00;96708.63;5038447;28;20253;-72
2021/06/10 05:29:36;;;;;;;35.65;23.30;;;;;;;15.87;100.00;96709.28;5038945;28;20212;-72
2021/06/10 05:32:03;;;;;;;35.70;23.00;;;;;;;15.94;100.00;96712.78;5038977;28;20202;-72
2021/06/10 05:34:29;;;;;;;36.20;22.90;;;;;;;16.06;100.00;96711.19;5038783;28;20723;-72
2021/06/10 05:36:55;;;;;;;35.72;22.63;;;;;;;16.09;100.00;96705.47;5037736;28;20205;-72
2021/06/10 05:39:21;;;;;;;32.13;21.95;;;;;;;16.19;100.00;96721.03;5038954;28;20209;-72
2021/06/10 05:41:47;;;;;;;37.00;23.15;;;;;;;16.25;100.00;96720.25;5038841;28;20295;-72
2021/06/10 05:44:13;;;;;;;37.58;23.30;;;;;;;16.26;100.00;96721.94;5037877;28;20239;-73
2021/06/10 05:46:41;;;;;;;32.95;21.88;;;;;;;16.20;100.00;96717.38;5038349;28;20247;-72
2021/06/10 05:49:07;;;;;;;33.38;18.35;;;;;;;16.24;100.00;96724.75;5038391;28;20255;-72
2021/06/10 05:51:33;;;;;;;35.45;22.35;;;;;;;16.27;100.00;96728.91;5038603;28;20722;-72
2021/06/10 05:53:59;;;;;;;34.45;21.35;;;;;;;16.16;100.00;96727.56;5037946;28;20225;-71
2021/06/10 05:56:25;;;;;;;39.28;20.30;;;;;;;16.15;100.00;96725.97;5037780;28;20258;-72
2021/06/10 05:58:51;;;;;;;36.60;23.45;;;;;;;16.17;100.00;96729.22;5038726;28;20233;-71
2021/06/10 06:01:17;;;;;;;36.72;23.98;;;;;;;16.30;100.00;96728.47;5038064;28;20221;-72
2021/06/10 06:03:44;;;;;;;34.65;22.48;;;;;;;16.39;100.00;96730.75;5038340;28;20316;-72
2021/06/10 06:06:11;;;;;;;33.55;22.73;;;;;;;16.43;100.00;96731.19;5037401;28;20209;-72
2021/06/10 06:08:37;;;;;;;37.70;23.48;;;;;;;16.50;100.00;96732.84;5037963;28;20556;-72
2021/06/10 06:11:03;;;;;;;34.03;22.75;;;;;;;16.54;100.00;96731.41;5038252;28;20207;-72
2021/06/10 06:13:43;;;;;;;32.70;20.02;;;;;;;16.59;100.00;96724.44;5038043;28;20228;-71
2021/06/10 06:16:10;;;;;;;37.08;23.17;;;;;;;16.65;100.00;96738.81;5037196;28;20252;-72
2021/06/10 06:18:37;;;;;;;35.72;22.25;;;;;;;16.72;100.00;96729.78;5037369;28;20232;-72
2021/06/10 06:21:05;;;;;;;33.50;21.45;;;;;;;16.83;100.00;96729.19;5037953;28;20193;-72
2021/06/10 06:23:31;;;;;;;31.70;21.20;;;;;;;16.96;100.00;96731.88;5038174;28;20252;-72
2021/06/10 06:25:58;;;;;;;31.83;20.90;;;;;;;17.06;100.00;96731.47;5037480;28;20201;-72
2021/06/10 06:28:24;;;;;;;33.30;21.38;;;;;;;17.15;100.00;96726.53;5037979;28;20201;-72
2021/06/10 06:30:50;;;;;;;32.25;20.67;;;;;;;17.23;100.00;96729.03;5037744;28;20201;-72
2021/06/10 06:33:16;;;;;;;34.50;21.65;;;;;;;17.24;100.00;96728.00;5037892;28;20236;-72
2021/06/10 06:35:43;;;;;;;33.70;21.35;;;;;;;17.31;100.00;96731.50;5037098;28;20683;-72
2021/06/10 06:38:11;;;;;;;31.13;21.35;;;;;;;17.42;100.00;96741.50;5037543;28;20260;-72
2021/06/10 06:40:38;;;;;;;27.83;17.33;;;;;;;17.43;100.00;96735.16;5037114;28;20213;-72
2021/06/10 06:43:05;;;;;;;30.63;19.08;;;;;;;17.52;100.00;96743.78;5037677;28;20690;-72
2021/06/10 06:45:31;;;;;;;30.63;20.70;;;;;;;17.54;100.00;96737.22;5036061;28;20205;-72
2021/06/10 06:47:57;;;;;;;30.50;21.00;;;;;;;17.57;100.00;96747.44;5036939;28;20274;-72
2021/06/10 06:50:23;;;;;;;31.15;20.35;;;;;;;17.67;100.00;96747.84;5035716;28;20659;-71
2021/06/10 06:52:49;;;;;;;32.60;20.40;;;;;;;17.80;100.00;96737.94;5036705;28;20204;-72
2021/06/10 06:55:16;;;;;;;29.98;20.38;;;;;;;17.92;100.00;96746.13;5037080;28;20577;-72
2021/06/10 06:57:42;;;;;;;29.40;20.15;;;;;;;17.99;100.00;96750.41;5036551;28;20233;-72
2021/06/10 07:00:09;;;;;;;28.88;19.67;;;;;;;18.02;100.00;96751.84;5036449;28;20284;-72
2021/06/10 07:02:35;;;;;;;30.17;19.80;;;;;;;18.09;100.00;96747.31;5037261;28;20212;-72
2021/06/10 07:05:01;;;;;;;30.50;19.88;;;;;;;18.17;100.00;96747.06;5036623;28;20599;-72
2021/06/10 07:07:27;;;;;;;31.00;20.08;;;;;;;18.28;100.00;96746.44;5036487;28;20225;-72
2021/06/10 07:09:53;;;;;;;29.75;20.00;;;;;;;18.33;100.00;96746.63;5036917;28;20209;-72
2021/06/10 07:12:21;;;;;;;27.95;19.58;;;;;;;18.48;100.00;96742.63;5036661;28;20201;-72
2021/06/10 07:14:47;;;;;;;30.98;20.35;;;;;;;18.57;100.00;96741.34;5036598;28;20240;-72
2021/06/10 07:17:12;;;;;;;29.60;20.52;;;;;;;18.69;100.00;96739.66;5036058;28;20221;-72
2021/06/10 07:19:38;;;;;;;29.70;21.23;;;;;;;18.77;100.00;96745.53;5036687;28;20249;-72
2021/06/10 07:22:05;;;;;;;31.70;20.38;;;;;;;18.85;100.00;96744.47;5036734;28;20209;-73
2021/06/10 07:24:31;;;;;;;31.92;21.13;;;;;;;19.05;100.00;96748.66;5036693;28;20236;-73
2021/06/10 07:26:57;;;;;;;30.65;20.10;;;;;;;19.09;100.00;96745.38;5036280;28;20209;-72
2021/06/10 07:29:24;;;;;;;26.30;19.70;;;;;;;19.20;100.00;96747.31;5036334;28;20350;-72
2021/06/10 07:31:50;;;;;;;26.77;19.08;;;;;;;19.24;100.00;96756.53;5035938;28;20215;-72
2021/06/10 07:34:17;;;;;;;27.00;19.65;;;;;;;19.39;100.00;96754.38;5036855;28;20225;-73
2021/06/10 07:36:43;;;;;;;31.77;19.48;;;;;;;19.57;100.00;96750.94;5036455;28;20579;-72
2021/06/10 07:39:10;;;;;;;26.45;18.23;;;;;;;19.62;100.00;96749.22;5036410;28;20328;-72
2021/06/10 07:41:38;;;;;;;25.40;17.80;;;;;;;19.68;100.00;96751.03;5036197;28;20205;-72
2021/06/10 07:44:05;;;;;;;30.70;17.45;;;;;;;19.77;100.00;96757.72;5036335;28;20221;-72
2021/06/10 07:46:32;;;;;;;24.02;16.00;;;;;;;19.71;100.00;96755.91;5035581;28;20212;-73
2021/06/10 07:48:58;;;;;;;26.90;16.38;;;;;;;19.58;100.00;96751.50;5036556;28;20193;-72
2021/06/10 07:51:24;;;;;;;25.10;16.83;;;;;;;19.64;100.00;96753.31;5036197;28;20205;-72
2021/06/10 07:53:50;;;;;;;27.58;18.75;;;;;;;19.83;100.00;96754.97;5036087;28;20235;-72
2021/06/10 07:56:16;;;;;;;29.40;18.83;;;;;;;19.84;100.00;96755.78;5035066;28;20394;-73
2021/06/10 07:58:42;;;;;;;27.50;17.80;;;;;;;20.01;100.00;96765.72;5036510;28;20233;-72
2021/06/10 08:01:09;;;;;;;23.35;17.58;;;;;;;20.08;100.00;96758.44;5036952;28;20817;-72
2021/06/10 08:03:37;;;;;;;28.55;17.15;;;;;;;20.17;100.00;96762.44;5035513;28;21088;-72
2021/06/10 08:06:03;;;;;;;24.73;17.25;;;;;;;20.20;100.00;96762.81;5035391;28;20291;-72
2021/06/10 08:08:29;;;;;;;22.95;16.25;;;;;;;20.28;100.00;96756.34;5036642;28;20224;-72
2021/06/10 08:10:56;;;;;;;25.67;17.02;;;;;;;20.36;100.00;96756.03;5035648;28;20305;-73
2021/06/10 08:13:24;;;;;;;28.95;16.92;;;;;;;20.49;100.00;96754.03;5035984;28;20229;-72
2021/06/10 08:15:51;;;;;;;24.73;15.85;;;;;;;20.45;100.00;96746.66;5035352;28;20683;-73
2021/06/10 08:18:17;;;;;;;24.73;16.42;;;;;;;20.58;100.00;96754.50;5035815;28;20232;-72
2021/06/10 08:20:45;;;;;;;21.10;15.85;;;;;;;20.71;100.00;96752.50;5035014;28;20721;-73
2021/06/10 08:23:11;;;;;;;22.00;16.05;;;;;;;20.82;100.00;96750.94;5035823;28;20280;-72
2021/06/10 08:25:43;;;;;;;22.77;15.48;;;;;;;20.81;100.00;96750.09;5033458;28;20212;-72
2021/06/10 08:28:10;;;;;;;23.35;15.50;;;;;;;20.81;100.00;96744.75;5034403;28;20267;-73
2021/06/10 08:30:37;;;;;;;18.13;13.45;;;;;;;20.99;97.61;96744.69;5035832;28;20204;-73
2021/06/10 08:33:03;;;;;;;19.92;14.68;;;;;;;21.02;97.36;96739.69;5036069;28;20193;-72
2021/06/10 08:35:29;;;;;;;20.70;13.57;;;;;;;21.11;94.93;96738.31;5034506;28;21007;-73
2021/06/10 08:37:58;;;;;;;18.40;13.02;;;;;;;21.05;98.31;96733.88;5035548;28;20347;-73
2021/06/10 08:40:24;;;;;;;19.77;13.50;;;;;;;20.86;95.70;96739.50;5036218;28;20200;-73
2021/06/10 08:42:50;;;;;;;22.40;14.32;;;;;;;21.13;99.86;96730.88;5035330;28;20205;-73
2021/06/10 08:45:18;;;;;;;17.10;11.80;;;;;;;21.37;91.35;96732.50;5035182;28;20592;-72
2021/06/10 08:47:46;;;;;;;20.65;13.57;;;;;;;21.41;89.47;96736.38;5036148;28;20220;-73
2021/06/10 08:50:16;;;;;;;18.85;13.77;;;;;;;21.21;94.15;96737.75;5035627;28;20663;-72
2021/06/10 08:52:42;;;;;;;14.65;11.18;;;;;;;21.53;87.76;96731.88;5035768;28;20212;-72
2021/06/10 08:55:12;;;;;;;16.98;11.85;;;;;;;21.59;88.31;96737.13;5035147;28;20238;-73
2021/06/10 08:57:38;;;;;;;15.60;10.18;;;;;;;21.81;85.87;96740.03;5035458;28;21175;-73
2021/06/10 09:00:08;;;;;;;14.57;11.50;;;;;;;21.91;85.48;96734.91;5036106;28;20209;-72
2021/06/10 09:02:34;;;;;;;15.25;9.93;;;;;;;22.04;88.23;96728.22;5036090;28;20292;-73
2021/06/10 09:05:01;;;;;;;14.52;9.70;;;;;;;22.34;91.80;96730.75;5040031;28;20229;-72
2021/06/10 09:07:33;;;;;;;18.98;13.63;;;;;;;22.20;90.18;96740.91;5043506;28;20216;-71
2021/06/10 09:09:59;;;;;;;18.05;10.75;;;;;;;22.17;83.78;96740.56;5044791;28;20577;-71
2021/06/10 09:12:27;;;;;;;14.30;10.02;;;;;;;22.19;85.71;96738.47;5043277;28;20205;-71
2021/06/10 09:14:55;;;;;;;15.68;11.65;;;;;;;22.06;88.84;96736.84;5043835;28;20233;-72
2021/06/10 09:17:32;;;;;;;15.15;11.25;;;;;;;22.22;89.42;96738.81;5042469;28;20205;-72
2021/06/10 09:19:58;;;;;;;13.32;10.48;;;;;;;22.57;87.52;96736.88;5042660;28;20958;-71
2021/06/10 09:22:29;;;;;;;15.07;11.65;;;;;;;22.47;84.41;96735.88;5038757;28;20270;-72
2021/06/10 09:25:06;;;;;;;15.23;11.10;;;;;;;22.59;83.33;96740.13;5043658;28;20217;-71
2021/06/10 09:27:33;;;;;;;11.73;9.45;;;;;;;22.87;84.78;96729.38;5043349;28;20196;-72
2021/06/10 09:30:00;;;;;;;13.02;9.90;;;;;;;22.97;80.84;96733.06;5043126;28;20212;-72
2021/06/10 09:32:29;;;;;;;14.93;11.05;;;;;;;23.00;86.12;96737.16;5043208;28;20205;-71
2021/06/10 09:34:58;;;;;;;15.07;11.27;;;;;;;23.07;83.73;96727.09;5043667;28;20718;-71
2021/06/10 09:37:32;;;;;;;12.18;9.38;;;;;;;23.24;81.86;96720.66;5042569;28;20210;-72
2021/06/10 09:39:59;;;;;;;15.32;9.65;;;;;;;23.00;83.90;96724.56;5043401;28;20251;-72
2021/06/10 09:42:28;;;;;;;12.05;9.27;;;;;;;23.03;78.21;96732.13;5042099;28;20201;-72
2021/06/10 09:44:58;;;;;;;13.93;10.35;;;;;;;22.96;77.15;96731.47;5038327;28;20220;-72
2021/06/10 09:47:29;;;;;;;11.98;9.80;;;;;;;23.13;76.12;96728.81;5037925;28;21192;-72
2021/06/10 09:49:55;;;;;;;11.68;8.82;;;;;;;23.13;75.82;96734.19;5038384;28;20205;-72
2021/06/10 09:52:22;;;;;;;12.73;8.20;;;;;;;22.94;77.51;96738.13;5038605;28;20220;-72
2021/06/10 09:54:51;;;;;;;9.90;7.47;;;;;;;22.59;75.31;96736.63;5038106;28;20236;-72
2021/06/10 09:57:17;;;;;;;10.93;8.77;;;;;;;22.61;73.74;96738.03;5037555;28;20774;-72
2021/06/10 09:59:52;;;;;;;9.20;7.22;;;;;;;22.42;72.19;96743.81;5038135;28;20209;-72
2021/06/10 10:02:25;;;;;;;8.50;7.10;;;;;;;22.36;71.06;96740.19;5038658;28;20208;-72
2021/06/10 10:04:59;;;;;;;9.90;6.80;;;;;;;22.43;68.86;96735.53;5037914;28;21030;-72
2021/06/10 10:07:27;;;;;;;9.48;6.53;;;;;;;22.38;70.14;96735.41;5038139;28;20205;-73
2021/06/10 10:09:56;;;;;;;8.57;7.03;;;;;;;22.30;72.37;96733.13;5038373;28;20661;-72
2021/06/10 10:12:22;;;;;;;7.50;6.38;;;;;;;22.77;69.63;96739.94;5038069;28;20209;-72
2021/06/10 10:14:48;;;;;;;7.80;6.60;;;;;;;23.19;69.21;96725.16;5037091;28;20286;-72
2021/06/10 10:17:14;;;;;;;7.63;6.40;;;;;;;23.30;71.18;96727.75;5037729;28;20844;-72
2021/06/10 10:19:42;;;;;;;8.65;6.35;;;;;;;23.40;67.24;96725.25;5037720;28;20205;-72
2021/06/10 10:22:11;;;;;;;7.50;6.07;;;;;;;23.77;68.62;96727.19;5038459;28;20580;-72
2021/06/10 10:24:38;;;;;;;6.40;5.47;;;;;;;23.94;68.50;96730.69;5035092;28;20746;-73
2021/06/10 10:27:04;;;;;;;7.30;5.03;;;;;;;23.67;62.40;96724.31;5037021;28;20233;-73
2021/06/10 10:29:31;;;;;;;8.95;5.97;;;;;;;23.87;62.16;96721.13;5037315;28;20220;-73
2021/06/10 10:31:57;;;;;;;8.45;5.65;;;;;;;23.95;64.43;96718.84;5037721;28;20244;-73
2021/06/10 10:34:27;;;;;;;10.35;5.82;;;;;;;23.94;68.04;96711.81;5037849;28;20228;-73
2021/06/10 10:36:54;;;;;;;6.50;5.80;;;;;;;23.90;69.52;96707.19;5036850;28;20213;-73
2021/06/10 10:39:29;;;;;;;7.80;5.78;;;;;;;23.99;70.61;96701.13;5037454;28;20601;-73
2021/06/10 10:41:56;;;;;;;7.90;6.30;;;;;;;24.26;69.39;96702.84;5037624;28;20205;-73
2021/06/10 10:44:26;;;;;;;7.75;6.22;;;;;;;24.42;61.74;96704.69;5037490;28;20224;-73
2021/06/10 10:47:04;;;;;;;8.10;6.03;;;;;;;24.83;67.45;96704.88;5036756;28;20826;-71
2021/06/10 10:49:31;;;;;;;8.30;6.35;;;;;;;25.15;59.71;96696.88;5042287;28;20675;-72
2021/06/10 10:52:28;;;;;;;7.95;6.20;;;;;;;25.28;60.59;96695.38;5046274;28;21026;-72
2021/06/10 10:54:55;;;;;;;7.97;6.00;;;;;;;25.11;58.04;96691.16;5042513;28;20256;-72
2021/06/10 10:57:40;;;;;;;8.07;6.15;;;;;;;24.46;63.05;96696.91;5043412;28;20213;-72
2021/06/10 11:00:08;;;;;;;9.85;5.72;;;;;;;24.45;64.69;96685.31;5044155;28;20204;-72
2021/06/10 11:02:36;;;;;;;9.77;6.10;;;;;;;24.43;65.01;96681.28;5041231;28;20215;-71
2021/06/10 11:05:05;;;;;;;10.48;6.70;;;;;;;24.40;65.13;96673.66;5040458;28;20729;-71
2021/06/10 11:07:52;;;;;;;8.20;6.80;;;;;;;24.13;64.14;96679.00;5041877;28;20205;-72
2021/06/10 11:10:52;;;;;;;10.98;6.22;;;;;;;24.24;65.46;96674.53;5038800;28;20230;-74
2021/06/10 11:13:19;;;;;;;7.60;6.13;;;;;;;24.18;65.39;96672.84;5038806;28;20629;-72
2021/06/10 11:15:48;;;;;;;7.63;6.03;;;;;;;24.34;63.32;96670.06;5038747;28;20279;-72